sensor_id;sensor_type;location;lat;lon;timestamp;pressure;altitude;pressure_sealevel;temperature;humidity
61524;BME280;47393;38.758;-9.164;2022-10-16T00:04:02;100438.25;;;17.63;98.10
61524;BME280;47393;38.758;-9.164;2022-10-16T00:06:22;100431.75;;;17.58;97.89
61524;BME280;47393;38.758;-9.164;2022-10-16T00:08:56;100427.13;;;17.60;97.57
61524;BME280;47393;38.758;-9.164;2022-10-16T00:11:24;100438.41;;;17.62;97.70
61524;BME280;47393;38.758;-9.164;2022-10-16T00:13:31;100438.91;;;17.66;97.28
61524;BME280;47393;38.758;-9.164;2022-10-16T00:15:36;100429.78;;;17.68;96.92
61524;BME280;47393;38.758;-9.164;2022-10-16T00:18:00;100434.59;;;17.64;96.59
61524;BME280;47393;38.758;-9.164;2022-10-16T00:20:02;100430.09;;;17.65;96.75
61524;BME280;47393;38.758;-9.164;2022-10-16T00:26:04;100420.28;;;17.66;97.04
61524;BME280;47393;38.758;-9.164;2022-10-16T00:29:02;100415.78;;;17.66;96.96
61524;BME280;47393;38.758;-9.164;2022-10-16T00:34:10;100412.16;;;17.67;96.91
61524;BME280;47393;38.758;-9.164;2022-10-16T00:36:21;100404.16;;;17.67;97.18
61524;BME280;47393;38.758;-9.164;2022-10-16T00:38:34;100394.84;;;17.71;96.85
61524;BME280;47393;38.758;-9.164;2022-10-16T00:40:36;100405.31;;;17.73;96.57
61524;BME280;47393;38.758;-9.164;2022-10-16T00:42:47;100400.97;;;17.72;96.81
61524;BME280;47393;38.758;-9.164;2022-10-16T00:44:58;100388.56;;;17.64;96.76
61524;BME280;47393;38.758;-9.164;2022-10-16T00:52:46;100396.72;;;17.54;97.28
61524;BME280;47393;38.758;-9.164;2022-10-16T00:55:18;100393.06;;;17.55;97.47
61524;BME280;47393;38.758;-9.164;2022-10-16T01:00:49;100381.41;;;17.56;97.46
61524;BME280;47393;38.758;-9.164;2022-10-16T01:18:46;100371.25;;;17.68;96.14
61524;BME280;47393;38.758;-9.164;2022-10-16T01:21:28;100371.06;;;17.70;96.21
61524;BME280;47393;38.758;-9.164;2022-10-16T01:31:29;100362.13;;;17.62;97.06
61524;BME280;47393;38.758;-9.164;2022-10-16T01:34:20;100362.44;;;17.59;97.39
61524;BME280;47393;38.758;-9.164;2022-10-16T01:36:46;100346.00;;;17.64;97.01
61524;BME280;47393;38.758;-9.164;2022-10-16T01:38:59;100343.97;;;17.66;97.00
61524;BME280;47393;38.758;-9.164;2022-10-16T01:41:15;100343.28;;;17.72;97.08
61524;BME280;47393;38.758;-9.164;2022-10-16T01:45:51;100346.09;;;17.79;96.42
61524;BME280;47393;38.758;-9.164;2022-10-16T01:47:53;100343.59;;;17.77;96.48
61524;BME280;47393;38.758;-9.164;2022-10-16T01:50:11;100334.13;;;17.75;96.78
61524;BME280;47393;38.758;-9.164;2022-10-16T01:52:53;100333.31;;;17.74;96.81
61524;BME280;47393;38.758;-9.164;2022-10-16T01:55:47;100334.47;;;17.72;96.76
61524;BME280;47393;38.758;-9.164;2022-10-16T01:58:19;100322.19;;;17.71;97.15
61524;BME280;47393;38.758;-9.164;2022-10-16T02:03:01;100317.91;;;17.61;97.92
61524;BME280;47393;38.758;-9.164;2022-10-16T02:05:40;100316.41;;;17.59;98.38
61524;BME280;47393;38.758;-9.164;2022-10-16T02:07:59;100312.59;;;17.61;98.13
61524;BME280;47393;38.758;-9.164;2022-10-16T02:10:20;100305.59;;;17.60;98.51
61524;BME280;47393;38.758;-9.164;2022-10-16T02:12:50;100303.94;;;17.59;98.92
61524;BME280;47393;38.758;-9.164;2022-10-16T02:14:56;100312.94;;;17.58;98.79
61524;BME280;47393;38.758;-9.164;2022-10-16T02:16:57;100312.94;;;17.58;99.05
61524;BME280;47393;38.758;-9.164;2022-10-16T02:18:58;100311.28;;;17.57;99.24
61524;BME280;47393;38.758;-9.164;2022-10-16T02:26:05;100318.78;;;17.54;100.00
61524;BME280;47393;38.758;-9.164;2022-10-16T02:31:18;100326.06;;;17.52;100.00
61524;BME280;47393;38.758;-9.164;2022-10-16T02:33:44;100324.59;;;17.49;100.00
61524;BME280;47393;38.758;-9.164;2022-10-16T02:35:55;100329.25;;;17.47;100.00
61524;BME280;47393;38.758;-9.164;2022-10-16T02:38:02;100330.56;;;17.51;100.00
61524;BME280;47393;38.758;-9.164;2022-10-16T02:40:27;100321.09;;;17.49;100.00
61524;BME280;47393;38.758;-9.164;2022-10-16T02:42:52;100319.25;;;17.49;100.00
61524;BME280;47393;38.758;-9.164;2022-10-16T02:44:59;100319.59;;;17.54;100.00
61524;BME280;47393;38.758;-9.164;2022-10-16T02:49:38;100331.41;;;17.52;100.00
61524;BME280;47393;38.758;-9.164;2022-10-16T02:52:16;100333.88;;;17.53;100.00
61524;BME280;47393;38.758;-9.164;2022-10-16T02:55:21;100343.38;;;17.47;100.00
61524;BME280;47393;38.758;-9.164;2022-10-16T02:57:51;100339.53;;;17.50;100.00
61524;BME280;47393;38.758;-9.164;2022-10-16T03:00:12;100350.00;;;17.52;100.00
61524;BME280;47393;38.758;-9.164;2022-10-16T03:02:59;100347.53;;;17.50;100.00
61524;BME280;47393;38.758;-9.164;2022-10-16T03:05:43;100346.53;;;17.51;100.00
61524;BME280;47393;38.758;-9.164;2022-10-16T03:32:12;100302.16;;;17.43;100.00
61524;BME280;47393;38.758;-9.164;2022-10-16T03:38:04;100303.38;;;17.41;100.00
61524;BME280;47393;38.758;-9.164;2022-10-16T03:40:40;100298.03;;;17.41;100.00
61524;BME280;47393;38.758;-9.164;2022-10-16T03:43:52;100303.38;;;17.41;100.00
61524;BME280;47393;38.758;-9.164;2022-10-16T03:53:41;100296.84;;;17.52;100.00
61524;BME280;47393;38.758;-9.164;2022-10-16T03:56:30;100292.69;;;17.49;100.00
61524;BME280;47393;38.758;-9.164;2022-10-16T04:03:03;100292.31;;;17.52;99.41
61524;BME280;47393;38.758;-9.164;2022-10-16T04:05:46;100291.16;;;17.55;99.20
61524;BME280;47393;38.758;-9.164;2022-10-16T04:08:41;100296.47;;;17.55;98.81
61524;BME280;47393;38.758;-9.164;2022-10-16T04:10:49;100289.53;;;17.54;99.15
61524;BME280;47393;38.758;-9.164;2022-10-16T04:15:24;100292.47;;;17.59;98.95
61524;BME280;47393;38.758;-9.164;2022-10-16T04:17:28;100300.63;;;17.57;99.24
61524;BME280;47393;38.758;-9.164;2022-10-16T04:20:16;100309.25;;;17.59;98.60
61524;BME280;47393;38.758;-9.164;2022-10-16T04:25:30;100309.75;;;17.63;97.58
61524;BME280;47393;38.758;-9.164;2022-10-16T04:28:38;100308.41;;;17.67;97.58
61524;BME280;47393;38.758;-9.164;2022-10-16T04:31:31;100315.22;;;17.70;97.26
61524;BME280;47393;38.758;-9.164;2022-10-16T04:40:35;100312.56;;;17.70;97.18
61524;BME280;47393;38.758;-9.164;2022-10-16T04:45:40;100311.38;;;17.72;96.34
61524;BME280;47393;38.758;-9.164;2022-10-16T04:47:42;100311.72;;;17.69;97.13
61524;BME280;47393;38.758;-9.164;2022-10-16T04:49:44;100309.56;;;17.73;96.89
61524;BME280;47393;38.758;-9.164;2022-10-16T04:54:44;100318.19;;;17.75;96.76
61524;BME280;47393;38.758;-9.164;2022-10-16T04:57:48;100314.53;;;17.76;96.02
61524;BME280;47393;38.758;-9.164;2022-10-16T04:59:56;100323.16;;;17.78;96.28
61524;BME280;47393;38.758;-9.164;2022-10-16T05:02:41;100329.50;;;17.77;96.11
61524;BME280;47393;38.758;-9.164;2022-10-16T05:05:01;100325.13;;;17.84;95.59
61524;BME280;47393;38.758;-9.164;2022-10-16T05:07:45;100333.47;;;17.81;95.50
61524;BME280;47393;38.758;-9.164;2022-10-16T05:10:07;100328.44;;;17.86;95.09
61524;BME280;47393;38.758;-9.164;2022-10-16T05:12:15;100331.44;;;17.83;95.08
61524;BME280;47393;38.758;-9.164;2022-10-16T05:14:31;100339.25;;;17.85;94.99
61524;BME280;47393;38.758;-9.164;2022-10-16T05:16:59;100334.28;;;17.81;95.25
61524;BME280;47393;38.758;-9.164;2022-10-16T05:19:22;100339.59;;;17.81;95.40
61524;BME280;47393;38.758;-9.164;2022-10-16T05:24:00;100346.41;;;17.84;95.06
61524;BME280;47393;38.758;-9.164;2022-10-16T05:26:11;100342.09;;;17.83;95.43
61524;BME280;47393;38.758;-9.164;2022-10-16T05:28:12;100346.09;;;17.79;95.28
61524;BME280;47393;38.758;-9.164;2022-10-16T05:30:28;100349.25;;;17.83;95.13
61524;BME280;47393;38.758;-9.164;2022-10-16T05:32:39;100350.06;;;17.83;95.10
61524;BME280;47393;38.758;-9.164;2022-10-16T05:40:32;100354.75;;;17.81;95.18
61524;BME280;47393;38.758;-9.164;2022-10-16T05:42:36;100350.06;;;17.83;95.14
61524;BME280;47393;38.758;-9.164;2022-10-16T05:48:14;100350.59;;;17.78;95.85
61524;BME280;47393;38.758;-9.164;2022-10-16T05:59:36;100343.28;;;17.72;97.08
61524;BME280;47393;38.758;-9.164;2022-10-16T06:01:52;100343.63;;;17.69;97.42
61524;BME280;47393;38.758;-9.164;2022-10-16T06:04:23;100349.97;;;17.68;98.35
61524;BME280;47393;38.758;-9.164;2022-10-16T06:06:39;100344.13;;;17.73;97.99
61524;BME280;47393;38.758;-9.164;2022-10-16T06:09:32;100337.16;;;17.63;98.70
61524;BME280;47393;38.758;-9.164;2022-10-16T06:12:26;100348.16;;;17.60;99.46
61524;BME280;47393;38.758;-9.164;2022-10-16T06:14:55;100344.84;;;17.58;99.80
61524;BME280;47393;38.758;-9.164;2022-10-16T06:17:35;100339.53;;;17.58;99.65
61524;BME280;47393;38.758;-9.164;2022-10-16T06:20:24;100327.59;;;17.46;100.00
61524;BME280;47393;38.758;-9.164;2022-10-16T06:22:47;100336.88;;;17.50;100.00
61524;BME280;47393;38.758;-9.164;2022-10-16T06:25:07;100330.94;;;17.48;100.00
61524;BME280;47393;38.758;-9.164;2022-10-16T06:30:21;100299.59;;;17.19;100.00
61524;BME280;47393;38.758;-9.164;2022-10-16T06:32:55;100328.09;;;17.41;100.00
61524;BME280;47393;38.758;-9.164;2022-10-16T06:37:31;100327.28;;;17.41;100.00
61524;BME280;47393;38.758;-9.164;2022-10-16T06:39:52;100321.97;;;17.41;100.00
61524;BME280;47393;38.758;-9.164;2022-10-16T06:41:56;100326.78;;;17.37;100.00
61524;BME280;47393;38.758;-9.164;2022-10-16T06:44:10;100324.78;;;17.39;100.00
61524;BME280;47393;38.758;-9.164;2022-10-16T06:46:32;100324.31;;;17.36;100.00
61524;BME280;47393;38.758;-9.164;2022-10-16T06:49:00;100326.97;;;17.36;100.00
61524;BME280;47393;38.758;-9.164;2022-10-16T06:51:12;100322.63;;;17.35;100.00
61524;BME280;47393;38.758;-9.164;2022-10-16T06:53:50;100324.31;;;17.36;100.00
61524;BME280;47393;38.758;-9.164;2022-10-16T07:01:14;100328.97;;;17.34;100.00
61524;BME280;47393;38.758;-9.164;2022-10-16T07:03:15;100333.59;;;17.40;100.00
61524;BME280;47393;38.758;-9.164;2022-10-16T07:05:46;100324.13;;;17.37;100.00
61524;BME280;47393;38.758;-9.164;2022-10-16T07:08:20;100321.00;;;17.34;100.00
61524;BME280;47393;38.758;-9.164;2022-10-16T07:13:46;100328.75;;;17.43;100.00
61524;BME280;47393;38.758;-9.164;2022-10-16T07:18:11;100335.91;;;17.43;100.00
61524;BME280;47393;38.758;-9.164;2022-10-16T07:20:37;100332.28;;;17.36;100.00
61524;BME280;47393;38.758;-9.164;2022-10-16T07:23:42;100332.28;;;17.36;100.00
61524;BME280;47393;38.758;-9.164;2022-10-16T07:28:20;100334.41;;;17.40;100.00
61524;BME280;47393;38.758;-9.164;2022-10-16T07:34:31;100338.75;;;17.41;100.00
61524;BME280;47393;38.758;-9.164;2022-10-16T07:37:09;100347.19;;;17.53;100.00
61524;BME280;47393;38.758;-9.164;2022-10-16T07:42:51;100345.63;;;17.75;100.00
61524;BME280;47393;38.758;-9.164;2022-10-16T07:49:09;100355.72;;;17.88;100.00
61524;BME280;47393;38.758;-9.164;2022-10-16T07:51:33;100355.41;;;17.91;99.05
61524;BME280;47393;38.758;-9.164;2022-10-16T07:54:10;100355.19;;;18.01;98.86
61524;BME280;47393;38.758;-9.164;2022-10-16T07:59:18;100368.41;;;18.18;98.10
61524;BME280;47393;38.758;-9.164;2022-10-16T08:01:48;100363.03;;;18.26;97.34
61524;BME280;47393;38.758;-9.164;2022-10-16T08:04:31;100358.31;;;18.36;97.11
61524;BME280;47393;38.758;-9.164;2022-10-16T08:16:59;100368.91;;;18.21;95.95
61524;BME280;47393;38.758;-9.164;2022-10-16T08:19:21;100379.16;;;18.32;95.56
61524;BME280;47393;38.758;-9.164;2022-10-16T08:21:57;100387.91;;;18.41;95.16
61524;BME280;47393;38.758;-9.164;2022-10-16T08:27:45;100378.72;;;18.44;93.94
61524;BME280;47393;38.758;-9.164;2022-10-16T08:31:06;100382.69;;;18.48;93.95
61524;BME280;47393;38.758;-9.164;2022-10-16T08:35:49;100388.78;;;18.88;91.88
61524;BME280;47393;38.758;-9.164;2022-10-16T08:37:59;100401.31;;;18.79;91.80
61524;BME280;47393;38.758;-9.164;2022-10-16T08:40:00;100411.69;;;18.74;92.86
61524;BME280;47393;38.758;-9.164;2022-10-16T08:52:46;100390.00;;;19.00;91.77
61524;BME280;47393;38.758;-9.164;2022-10-16T08:57:22;100398.88;;;19.16;91.16
61524;BME280;47393;38.758;-9.164;2022-10-16T08:59:23;100389.63;;;18.89;92.82
61524;BME280;47393;38.758;-9.164;2022-10-16T09:01:25;100395.78;;;18.89;92.63
61524;BME280;47393;38.758;-9.164;2022-10-16T09:03:46;100408.28;;;18.89;92.98
61524;BME280;47393;38.758;-9.164;2022-10-16T09:06:22;100396.50;;;19.21;92.70
61524;BME280;47393;38.758;-9.164;2022-10-16T09:18:37;100399.03;;;19.67;88.28
61524;BME280;47393;38.758;-9.164;2022-10-16T09:24:44;100393.44;;;19.47;88.97
61524;BME280;47393;38.758;-9.164;2022-10-16T09:37:31;100406.34;;;18.74;94.10
61524;BME280;47393;38.758;-9.164;2022-10-16T09:57:11;100402.81;;;19.73;88.32
61524;BME280;47393;38.758;-9.164;2022-10-16T09:59:25;100406.38;;;19.65;88.09
61524;BME280;47393;38.758;-9.164;2022-10-16T10:04:09;100402.13;;;19.41;88.78
61524;BME280;47393;38.758;-9.164;2022-10-16T10:14:03;100401.78;;;19.59;88.46
61524;BME280;47393;38.758;-9.164;2022-10-16T10:17:13;100403.81;;;19.72;86.42
61524;BME280;47393;38.758;-9.164;2022-10-16T10:19:41;100395.41;;;20.20;84.76
61524;BME280;47393;38.758;-9.164;2022-10-16T10:45:18;100412.63;;;21.40;76.79
61524;BME280;47393;38.758;-9.164;2022-10-16T10:47:35;100416.41;;;21.81;75.90
61524;BME280;47393;38.758;-9.164;2022-10-16T10:50:02;100428.13;;;22.15;74.32
61524;BME280;47393;38.758;-9.164;2022-10-16T11:03:02;100395.53;;;22.87;70.60
61524;BME280;47393;38.758;-9.164;2022-10-16T11:05:40;100389.97;;;23.42;70.66
61524;BME280;47393;38.758;-9.164;2022-10-16T11:11:34;100393.97;;;25.32;62.74
61524;BME280;47393;38.758;-9.164;2022-10-16T11:14:30;100398.94;;;25.29;60.40
61524;BME280;47393;38.758;-9.164;2022-10-16T11:22:38;100404.81;;;23.58;65.86
61524;BME280;47393;38.758;-9.164;2022-10-16T11:28:25;100411.97;;;22.43;70.17
61524;BME280;47393;38.758;-9.164;2022-10-16T11:33:53;100391.81;;;22.61;70.34
61524;BME280;47393;38.758;-9.164;2022-10-16T11:46:30;100379.72;;;25.25;61.06
61524;BME280;47393;38.758;-9.164;2022-10-16T11:50:53;100374.63;;;25.17;58.89
61524;BME280;47393;38.758;-9.164;2022-10-16T11:53:07;100376.41;;;24.79;58.70
61524;BME280;47393;38.758;-9.164;2022-10-16T11:57:21;100372.25;;;24.45;59.39
61524;BME280;47393;38.758;-9.164;2022-10-16T11:59:30;100373.25;;;24.82;58.20
61524;BME280;47393;38.758;-9.164;2022-10-16T12:01:46;100371.72;;;23.77;61.17
61524;BME280;47393;38.758;-9.164;2022-10-16T12:12:22;100366.69;;;24.40;60.67
61524;BME280;47393;38.758;-9.164;2022-10-16T12:16:32;100363.84;;;25.98;54.99
61524;BME280;47393;38.758;-9.164;2022-10-16T12:18:36;100373.88;;;26.70;53.15
61524;BME280;47393;38.758;-9.164;2022-10-16T12:21:03;100366.94;;;26.32;53.37
61524;BME280;47393;38.758;-9.164;2022-10-16T12:23:19;100357.59;;;27.12;51.94
61524;BME280;47393;38.758;-9.164;2022-10-16T12:25:55;100356.41;;;26.84;52.18
61524;BME280;47393;38.758;-9.164;2022-10-16T12:30:15;100341.09;;;26.12;53.24
61524;BME280;47393;38.758;-9.164;2022-10-16T12:33:16;100330.16;;;25.88;54.07
61524;BME280;47393;38.758;-9.164;2022-10-16T12:41:23;100305.47;;;27.47;51.62
61524;BME280;47393;38.758;-9.164;2022-10-16T12:43:41;100310.38;;;28.20;49.31
61524;BME280;47393;38.758;-9.164;2022-10-16T12:45:59;100306.03;;;28.64;46.91
61524;BME280;47393;38.758;-9.164;2022-10-16T12:48:21;100305.03;;;28.08;48.49
61524;BME280;47393;38.758;-9.164;2022-10-16T12:52:48;100317.19;;;27.93;47.31
61524;BME280;47393;38.758;-9.164;2022-10-16T12:54:51;100311.56;;;27.54;48.90
61524;BME280;47393;38.758;-9.164;2022-10-16T13:21:18;100288.16;;;25.50;51.99
61524;BME280;47393;38.758;-9.164;2022-10-16T13:29:36;100290.88;;;24.88;55.70
61524;BME280;47393;38.758;-9.164;2022-10-16T13:34:49;100303.06;;;24.65;55.07
61524;BME280;47393;38.758;-9.164;2022-10-16T13:37:01;100307.69;;;24.51;55.89
61524;BME280;47393;38.758;-9.164;2022-10-16T13:50:43;100327.03;;;24.67;55.33
61524;BME280;47393;38.758;-9.164;2022-10-16T13:53:13;100323.72;;;24.01;57.17
61524;BME280;47393;38.758;-9.164;2022-10-16T13:55:51;100322.81;;;23.69;57.58
61524;BME280;47393;38.758;-9.164;2022-10-16T14:00:37;100313.63;;;23.90;57.49
61524;BME280;47393;38.758;-9.164;2022-10-16T14:02:49;100304.91;;;24.01;57.20
61524;BME280;47393;38.758;-9.164;2022-10-16T14:04:57;100308.31;;;24.53;56.13
61524;BME280;47393;38.758;-9.164;2022-10-16T14:07:34;100303.88;;;24.34;56.10
61524;BME280;47393;38.758;-9.164;2022-10-16T14:09:58;100302.50;;;23.93;57.16
61524;BME280;47393;38.758;-9.164;2022-10-16T14:12:16;100300.50;;;24.13;57.99
61524;BME280;47393;38.758;-9.164;2022-10-16T14:20:32;100285.59;;;23.00;70.69
61524;BME280;47393;38.758;-9.164;2022-10-16T14:23:29;100271.38;;;22.66;70.07
61524;BME280;47393;38.758;-9.164;2022-10-16T14:25:31;100265.16;;;22.19;75.67
61524;BME280;47393;38.758;-9.164;2022-10-16T14:27:41;100255.59;;;21.83;73.66
61524;BME280;47393;38.758;-9.164;2022-10-16T14:32:26;100242.31;;;22.36;69.45
61524;BME280;47393;38.758;-9.164;2022-10-16T14:34:34;100246.59;;;22.91;69.29
61524;BME280;47393;38.758;-9.164;2022-10-16T14:37:26;100232.31;;;23.30;66.75
61524;BME280;47393;38.758;-9.164;2022-10-16T14:39:51;100233.66;;;23.53;64.06
61524;BME280;47393;38.758;-9.164;2022-10-16T14:42:13;100227.84;;;24.01;63.04
61524;BME280;47393;38.758;-9.164;2022-10-16T14:44:29;100226.66;;;23.91;62.17
61524;BME280;47393;38.758;-9.164;2022-10-16T14:46:53;100226.28;;;23.87;61.68
61524;BME280;47393;38.758;-9.164;2022-10-16T14:49:15;100227.44;;;23.98;62.14
61524;BME280;47393;38.758;-9.164;2022-10-16T14:51:25;100227.09;;;24.45;60.02
61524;BME280;47393;38.758;-9.164;2022-10-16T14:53:49;100234.50;;;23.92;60.54
61524;BME280;47393;38.758;-9.164;2022-10-16T14:58:23;100232.31;;;23.76;62.83
61524;BME280;47393;38.758;-9.164;2022-10-16T15:03:20;100226.28;;;23.80;61.51
61524;BME280;47393;38.758;-9.164;2022-10-16T15:06:02;100222.47;;;24.01;59.90
61524;BME280;47393;38.758;-9.164;2022-10-16T15:09:03;100219.69;;;23.83;61.12
61524;BME280;47393;38.758;-9.164;2022-10-16T15:14:24;100225.94;;;24.09;59.98
61524;BME280;47393;38.758;-9.164;2022-10-16T15:19:25;100231.34;;;23.57;60.98
61524;BME280;47393;38.758;-9.164;2022-10-16T15:21:52;100221.94;;;23.93;59.68
61524;BME280;47393;38.758;-9.164;2022-10-16T15:30:01;100157.28;;;23.49;59.91
61524;BME280;47393;38.758;-9.164;2022-10-16T15:32:25;100206.03;;;24.16;58.45
61524;BME280;47393;38.758;-9.164;2022-10-16T15:35:34;100199.78;;;24.48;57.36
61524;BME280;47393;38.758;-9.164;2022-10-16T15:38:08;100208.50;;;23.47;60.63
61524;BME280;47393;38.758;-9.164;2022-10-16T15:41:01;100202.44;;;23.13;62.05
61524;BME280;47393;38.758;-9.164;2022-10-16T15:47:15;100216.22;;;23.69;60.23
61524;BME280;47393;38.758;-9.164;2022-10-16T15:49:48;100225.06;;;23.76;59.94
61524;BME280;47393;38.758;-9.164;2022-10-16T15:52:44;100223.47;;;23.69;60.56
61524;BME280;47393;38.758;-9.164;2022-10-16T15:58:39;100210.03;;;23.30;61.04
61524;BME280;47393;38.758;-9.164;2022-10-16T16:16:43;100206.56;;;21.27;65.02
61524;BME280;47393;38.758;-9.164;2022-10-16T16:19:07;100213.66;;;21.48;65.34
61524;BME280;47393;38.758;-9.164;2022-10-16T16:21:38;100210.00;;;21.56;63.98
61524;BME280;47393;38.758;-9.164;2022-10-16T16:23:44;100210.44;;;21.66;63.61
61524;BME280;47393;38.758;-9.164;2022-10-16T16:26:29;100209.13;;;21.49;66.45
61524;BME280;47393;38.758;-9.164;2022-10-16T16:28:31;100209.06;;;21.29;70.61
61524;BME280;47393;38.758;-9.164;2022-10-16T16:30:35;100204.31;;;20.89;73.39
61524;BME280;47393;38.758;-9.164;2022-10-16T16:32:45;100200.72;;;20.47;77.68
61524;BME280;47393;38.758;-9.164;2022-10-16T16:34:49;100206.81;;;20.12;76.62
61524;BME280;47393;38.758;-9.164;2022-10-16T16:37:27;100203.66;;;20.09;77.62
61524;BME280;47393;38.758;-9.164;2022-10-16T16:39:39;100211.56;;;20.17;78.67
61524;BME280;47393;38.758;-9.164;2022-10-16T16:41:44;100216.50;;;20.20;78.12
61524;BME280;47393;38.758;-9.164;2022-10-16T16:44:13;100222.00;;;20.33;82.82
61524;BME280;47393;38.758;-9.164;2022-10-16T16:46:58;100229.53;;;20.30;81.37
61524;BME280;47393;38.758;-9.164;2022-10-16T16:54:18;100231.53;;;20.21;81.64
61524;BME280;47393;38.758;-9.164;2022-10-16T17:05:07;100246.06;;;20.40;81.48
61524;BME280;47393;38.758;-9.164;2022-10-16T17:10:48;100251.28;;;20.48;79.23
61524;BME280;47393;38.758;-9.164;2022-10-16T17:13:18;100249.06;;;20.52;76.41
61524;BME280;47393;38.758;-9.164;2022-10-16T17:15:45;100248.03;;;20.53;74.01
61524;BME280;47393;38.758;-9.164;2022-10-16T17:17:58;100246.22;;;20.60;75.83
61524;BME280;47393;38.758;-9.164;2022-10-16T17:25:34;100236.75;;;20.79;78.08
61524;BME280;47393;38.758;-9.164;2022-10-16T17:28:38;100243.53;;;20.82;78.02
61524;BME280;47393;38.758;-9.164;2022-10-16T17:36:48;100252.63;;;20.59;75.90
61524;BME280;47393;38.758;-9.164;2022-10-16T17:38:51;100258.22;;;20.43;75.80
61524;BME280;47393;38.758;-9.164;2022-10-16T17:41:08;100263.84;;;20.26;75.67
61524;BME280;47393;38.758;-9.164;2022-10-16T17:43:10;100277.38;;;20.25;76.07
61524;BME280;47393;38.758;-9.164;2022-10-16T17:45:20;100273.63;;;20.19;77.70
61524;BME280;47393;38.758;-9.164;2022-10-16T17:47:35;100278.44;;;20.09;78.61
61524;BME280;47393;38.758;-9.164;2022-10-16T17:49:50;100285.91;;;19.98;79.16
61524;BME280;47393;38.758;-9.164;2022-10-16T17:51:53;100279.09;;;19.96;79.70
61524;BME280;47393;38.758;-9.164;2022-10-16T17:54:17;100268.75;;;19.86;80.20
61524;BME280;47393;38.758;-9.164;2022-10-16T17:56:58;100259.28;;;19.68;79.88
61524;BME280;47393;38.758;-9.164;2022-10-16T18:02:14;100259.50;;;19.52;81.23
61524;BME280;47393;38.758;-9.164;2022-10-16T18:09:22;100263.00;;;19.38;81.51
61524;BME280;47393;38.758;-9.164;2022-10-16T18:11:51;100259.06;;;19.33;81.41
61524;BME280;47393;38.758;-9.164;2022-10-16T18:13:58;100265.38;;;19.32;81.39
61524;BME280;47393;38.758;-9.164;2022-10-16T18:18:38;100269.81;;;19.25;80.51
61524;BME280;47393;38.758;-9.164;2022-10-16T18:20:55;100267.50;;;19.22;81.08
61524;BME280;47393;38.758;-9.164;2022-10-16T18:23:46;100268.50;;;19.21;81.61
61524;BME280;47393;38.758;-9.164;2022-10-16T18:28:04;100269.16;;;19.08;83.64
61524;BME280;47393;38.758;-9.164;2022-10-16T18:30:14;100270.53;;;19.04;83.30
61524;BME280;47393;38.758;-9.164;2022-10-16T18:37:52;100275.59;;;18.99;83.20
61524;BME280;47393;38.758;-9.164;2022-10-16T18:40:18;100286.81;;;18.94;83.38
61524;BME280;47393;38.758;-9.164;2022-10-16T18:42:56;100285.88;;;18.87;84.12
61524;BME280;47393;38.758;-9.164;2022-10-16T18:45:05;100291.50;;;18.84;84.16
61524;BME280;47393;38.758;-9.164;2022-10-16T18:48:04;100299.22;;;18.79;84.02
61524;BME280;47393;38.758;-9.164;2022-10-16T18:50:30;100308.22;;;18.78;84.14
61524;BME280;47393;38.758;-9.164;2022-10-16T18:52:48;100296.75;;;18.77;84.24
61524;BME280;47393;38.758;-9.164;2022-10-16T18:55:14;100303.91;;;18.77;84.99
61524;BME280;47393;38.758;-9.164;2022-10-16T18:57:53;100288.09;;;18.75;86.59
61524;BME280;47393;38.758;-9.164;2022-10-16T19:00:17;100289.81;;;18.68;86.47
61524;BME280;47393;38.758;-9.164;2022-10-16T19:02:30;100297.59;;;18.55;89.47
61524;BME280;47393;38.758;-9.164;2022-10-16T19:05:08;100303.41;;;18.35;92.96
61524;BME280;47393;38.758;-9.164;2022-10-16T19:07:15;100323.28;;;18.24;92.56
61524;BME280;47393;38.758;-9.164;2022-10-16T19:09:28;100322.16;;;18.19;97.13
61524;BME280;47393;38.758;-9.164;2022-10-16T19:13:52;100318.00;;;18.16;96.09
61524;BME280;47393;38.758;-9.164;2022-10-16T19:21:11;100322.50;;;18.15;96.72
61524;BME280;47393;38.758;-9.164;2022-10-16T19:23:15;100322.38;;;18.09;96.90
61524;BME280;47393;38.758;-9.164;2022-10-16T19:25:19;100318.41;;;18.05;96.59
61524;BME280;47393;38.758;-9.164;2022-10-16T19:27:25;100317.59;;;18.04;98.83
61524;BME280;47393;38.758;-9.164;2022-10-16T19:29:47;100317.94;;;18.01;98.27
61524;BME280;47393;38.758;-9.164;2022-10-16T19:31:52;100311.41;;;18.04;97.96
61524;BME280;47393;38.758;-9.164;2022-10-16T19:33:57;100314.91;;;18.04;97.56
61524;BME280;47393;38.758;-9.164;2022-10-16T19:36:15;100309.41;;;18.06;97.37
61524;BME280;47393;38.758;-9.164;2022-10-16T19:38:16;100320.72;;;18.08;97.42
61524;BME280;47393;38.758;-9.164;2022-10-16T19:40:19;100331.53;;;18.06;95.54
61524;BME280;47393;38.758;-9.164;2022-10-16T19:42:31;100341.34;;;18.06;96.31
61524;BME280;47393;38.758;-9.164;2022-10-16T19:44:50;100339.69;;;18.05;96.09
61524;BME280;47393;38.758;-9.164;2022-10-16T19:47:15;100355.31;;;18.08;96.23
61524;BME280;47393;38.758;-9.164;2022-10-16T19:49:35;100363.25;;;18.16;95.08
61524;BME280;47393;38.758;-9.164;2022-10-16T19:51:39;100366.22;;;18.21;95.28
61524;BME280;47393;38.758;-9.164;2022-10-16T19:56:19;100388.13;;;18.31;94.31
61524;BME280;47393;38.758;-9.164;2022-10-16T19:58:24;100383.63;;;18.32;95.25
61524;BME280;47393;38.758;-9.164;2022-10-16T20:00:29;100387.78;;;18.35;95.05
61524;BME280;47393;38.758;-9.164;2022-10-16T20:02:30;100386.28;;;18.32;95.17
61524;BME280;47393;38.758;-9.164;2022-10-16T20:04:54;100390.31;;;18.28;94.94
61524;BME280;47393;38.758;-9.164;2022-10-16T20:06:56;100396.97;;;18.24;95.51
61524;BME280;47393;38.758;-9.164;2022-10-16T20:08:57;100401.00;;;18.20;95.47
61524;BME280;47393;38.758;-9.164;2022-10-16T20:11:02;100390.50;;;18.18;97.40
61524;BME280;47393;38.758;-9.164;2022-10-16T20:13:06;100392.72;;;18.14;96.05